Time;durP1;ratioP1;P1;durP2;ratioP2;P2;SDS_P1;SDS_P2;PMS_P1;PMS_P2;Temp;Humidity;BMP_temperature;BMP_pressure;BME280_temperature;BME280_humidity;BME280_pressure;Samples;Min_cycle;Max_cycle;Signal;HPM_P1;HPM_P2
2021/07/29 00:00:51;;;;;;;10.13;4.70;;;17.10;99.90;;;16.10;100.00;101470.88;4982891;28;20061;-75
2021/07/29 00:03:17;;;;;;;7.70;4.53;;;17.10;99.90;;;16.07;100.00;101465.75;4966492;28;20081;-75
2021/07/29 00:05:43;;;;;;;8.15;4.63;;;17.10;99.90;;;16.07;100.00;101462.22;5007823;28;20046;-75
2021/07/29 00:08:09;;;;;;;8.65;5.32;;;17.10;99.90;;;16.02;100.00;101465.16;4980007;28;20034;-75
2021/07/29 00:10:35;;;;;;;8.63;4.70;;;17.00;99.90;;;15.97;100.00;101462.75;4968734;28;20030;-75
2021/07/29 00:13:04;;;;;;;6.85;4.40;;;;;;;15.99;100.00;101462.69;4988216;28;20030;-75
2021/07/29 00:15:30;;;;;;;10.88;5.18;;;17.00;99.90;;;15.94;100.00;101449.66;4969071;28;20039;-75
2021/07/29 00:20:26;;;;;;;12.65;5.50;;;17.00;99.90;;;15.91;100.00;101475.53;4971356;28;20116;-75
2021/07/29 00:22:57;;;;;;;9.98;5.10;;;16.90;99.90;;;16.03;100.00;101489.94;5002598;28;20046;-75
2021/07/29 00:25:25;;;;;;;8.15;4.70;;;17.00;99.90;;;15.92;100.00;101467.50;4969869;28;20037;-75
2021/07/29 00:27:54;;;;;;;12.05;5.18;;;17.00;99.90;;;15.88;100.00;101487.19;4968840;28;20027;-75
2021/07/29 00:30:23;;;;;;;8.10;4.88;;;16.90;99.90;;;15.88;100.00;101478.38;4986878;28;20545;-75
2021/07/29 00:32:52;;;;;;;8.43;4.93;;;16.90;99.90;;;15.83;100.00;101493.69;4986078;28;20129;-75
2021/07/29 00:35:18;;;;;;;13.07;5.47;;;16.80;99.90;;;15.82;100.00;101490.19;4974243;28;20152;-75
2021/07/29 00:37:53;;;;;;;14.43;4.93;;;16.80;99.90;;;15.74;100.00;101498.63;4953877;28;20412;-75
2021/07/29 00:40:23;;;;;;;8.23;4.85;;;16.70;99.90;;;15.67;100.00;101499.84;4954662;28;21242;-75
2021/07/29 00:42:49;;;;;;;8.73;5.07;;;16.60;99.90;;;15.62;100.00;101499.25;4985400;28;20473;-75
2021/07/29 00:45:15;;;;;;;6.97;4.80;;;16.60;99.90;;;15.57;100.00;101519.88;5002585;28;20044;-75
2021/07/29 00:47:44;;;;;;;7.10;4.45;;;16.60;99.90;;;15.54;100.00;101525.34;4982894;28;20026;-75
2021/07/29 00:50:13;;;;;;;12.68;5.72;;;16.50;99.90;;;15.49;100.00;101520.31;4992682;28;20394;-75
2021/07/29 00:52:40;;;;;;;11.20;5.47;;;16.50;99.90;;;15.41;100.00;101521.66;4968738;28;20539;-75
2021/07/29 00:55:08;;;;;;;13.57;5.80;;;16.40;99.90;;;15.36;100.00;101529.88;4999134;28;20034;-75
2021/07/29 00:57:34;;;;;;;12.10;5.32;;;16.40;99.90;;;15.33;100.00;101544.16;4974099;28;20045;-75
2021/07/29 01:00:05;;;;;;;16.48;6.35;;;16.30;99.90;;;15.30;100.00;101541.66;4970309;28;20065;-75
2021/07/29 01:02:32;;;;;;;12.80;5.45;;;16.30;99.90;;;15.27;100.00;101546.25;4956313;28;20157;-75
2021/07/29 01:04:59;;;;;;;10.80;6.00;;;16.30;99.90;;;15.26;100.00;101539.25;4974855;28;20087;-75
2021/07/29 01:07:25;;;;;;;16.98;6.05;;;16.30;99.90;;;15.25;100.00;101575.56;5004299;28;20089;-75
2021/07/29 01:09:51;;;;;;;9.13;5.20;;;16.30;99.90;;;15.24;100.00;101567.66;4958804;28;20173;-75
2021/07/29 01:12:17;;;;;;;11.93;5.95;;;16.30;99.90;;;15.26;100.00;101585.22;4982373;28;20466;-75
2021/07/29 01:14:45;;;;;;;15.73;5.95;;;16.30;99.90;;;15.27;100.00;101579.00;4981209;28;20163;-75
2021/07/29 01:17:11;;;;;;;8.65;6.30;;;16.40;99.90;;;15.30;100.00;101599.19;4952615;28;20023;-75
2021/07/29 01:19:37;;;;;;;10.00;5.60;;;16.40;99.90;;;15.34;100.00;101592.78;4954413;28;20065;-75
2021/07/29 01:22:04;;;;;;;16.50;6.28;;;16.40;99.90;;;15.35;100.00;101575.91;4953252;28;20035;-75
2021/07/29 01:24:30;;;;;;;15.68;5.43;;;16.40;99.90;;;15.39;100.00;101612.81;4942026;28;20476;-75
2021/07/29 01:26:56;;;;;;;18.25;5.88;;;16.50;99.90;;;15.43;100.00;101612.66;4967961;28;20031;-75
2021/07/29 01:29:22;;;;;;;10.65;5.55;;;16.50;99.90;;;15.49;100.00;101615.00;4952670;28;20026;-75
2021/07/29 01:31:48;;;;;;;10.80;5.50;;;16.50;99.90;;;15.51;100.00;101621.94;4930442;28;20038;-75
2021/07/29 01:34:16;;;;;;;13.57;5.70;;;16.60;99.90;;;15.52;100.00;101614.81;4962327;28;20038;-75
2021/07/29 01:36:42;;;;;;;9.32;5.45;;;16.60;99.90;;;15.52;100.00;101651.97;4999020;28;20444;-75
2021/07/29 01:39:08;;;;;;;7.78;5.38;;;16.60;99.90;;;15.50;100.00;101643.25;4957522;28;20498;-75
2021/07/29 01:41:34;;;;;;;9.52;5.07;;;16.60;99.90;;;15.51;100.00;101666.22;4972276;28;20429;-76
2021/07/29 01:44:00;;;;;;;9.68;5.70;;;16.60;99.90;;;15.49;100.00;101684.84;4989394;28;20039;-75
2021/07/29 01:46:26;;;;;;;10.45;5.15;;;16.60;99.90;;;15.53;100.00;101736.00;4973843;28;20448;-75
2021/07/29 01:48:52;;;;;;;10.02;4.47;;;16.60;99.90;;;15.57;100.00;101719.84;5007302;28;20114;-75
2021/07/29 01:51:18;;;;;;;7.85;4.25;;;16.70;99.90;;;15.66;100.00;101710.53;4975232;28;20125;-75
2021/07/29 01:53:44;;;;;;;8.05;4.88;;;16.70;99.90;;;15.73;100.00;101689.84;4971841;28;20080;-75
2021/07/29 01:56:11;;;;;;;6.13;3.92;;;16.80;99.90;;;15.72;100.00;101664.22;4973186;28;20500;-75
2021/07/29 01:58:37;;;;;;;7.97;4.22;;;16.80;99.90;;;15.70;100.00;101647.50;4970481;28;20068;-75
2021/07/29 02:01:04;;;;;;;6.60;4.13;;;16.70;99.90;;;15.67;100.00;101637.91;4958202;28;20029;-75
2021/07/29 02:03:29;;;;;;;5.70;3.85;;;16.70;99.90;;;15.62;100.00;101634.63;4969332;28;20035;-75
2021/07/29 02:05:55;;;;;;;6.90;4.07;;;16.60;99.90;;;15.55;100.00;101628.81;4969597;28;20072;-75
2021/07/29 02:08:23;;;;;;;7.50;4.38;;;16.60;99.90;;;15.51;100.00;101631.72;4966297;28;20039;-75
2021/07/29 02:10:49;;;;;;;6.32;3.90;;;16.60;99.90;;;15.47;100.00;101625.69;4953638;28;20056;-75
2021/07/29 02:13:15;;;;;;;8.15;4.32;;;16.50;99.90;;;15.40;100.00;101634.94;4935940;28;20311;-75
2021/07/29 02:15:41;;;;;;;6.25;4.00;;;16.40;99.90;;;15.32;100.00;101621.19;4944326;28;20543;-75
2021/07/29 02:18:08;;;;;;;10.30;4.15;;;16.30;99.90;;;15.22;100.00;101606.69;4935703;28;20066;-75
2021/07/29 02:20:34;;;;;;;6.82;4.38;;;16.30;99.90;;;15.12;100.00;101611.63;4953308;28;20035;-75
2021/07/29 02:23:00;;;;;;;8.20;4.18;;;16.20;99.90;;;15.08;100.00;101543.75;4952607;28;20056;-75
2021/07/29 02:25:26;;;;;;;7.45;4.20;;;16.10;99.90;;;15.05;100.00;101652.63;4937608;28;20065;-75
2021/07/29 02:27:52;;;;;;;8.68;4.20;;;16.10;99.90;;;15.03;100.00;101652.75;4935898;28;20090;-75
2021/07/29 02:30:19;;;;;;;8.20;4.22;;;16.10;99.90;;;15.04;100.00;101624.41;4953328;28;20061;-75
2021/07/29 02:32:45;;;;;;;12.25;4.60;;;16.10;99.90;;;15.01;100.00;101611.28;4951257;28;20089;-75
2021/07/29 02:35:12;;;;;;;8.30;4.00;;;16.10;99.90;;;14.99;100.00;101592.81;5004365;28;20548;-75
2021/07/29 02:37:38;;;;;;;8.55;3.85;;;16.00;99.90;;;14.92;100.00;101589.63;4972661;28;20578;-75
2021/07/29 02:40:05;;;;;;;5.72;3.97;;;16.00;99.90;;;14.86;100.00;101592.59;4971516;28;20056;-75
2021/07/29 02:42:31;;;;;;;7.90;4.18;;;15.90;99.90;;;14.79;100.00;101580.56;4987857;28;20143;-75
2021/07/29 02:44:56;;;;;;;7.47;3.90;;;15.90;99.90;;;14.75;100.00;101582.53;4987104;28;20570;-75
2021/07/29 02:47:22;;;;;;;8.23;4.10;;;15.80;99.90;;;14.74;100.00;101593.22;4989578;28;20056;-75
2021/07/29 02:49:48;;;;;;;8.52;4.40;;;15.80;99.90;;;14.77;100.00;101585.97;4976823;28;20061;-75
2021/07/29 02:52:14;;;;;;;6.13;4.03;;;15.90;99.90;;;14.81;100.00;101702.44;5000433;28;20100;-76
2021/07/29 02:54:41;;;;;;;7.10;4.00;;;15.90;99.90;;;14.86;100.00;101737.53;4970170;28;20041;-75
2021/07/29 02:57:07;;;;;;;8.73;4.05;;;16.00;99.90;;;14.90;100.00;101737.34;4968666;28;20417;-75
2021/07/29 02:59:33;;;;;;;6.00;4.20;;;16.00;99.90;;;14.91;100.00;101759.41;4972938;28;20087;-75
2021/07/29 03:01:59;;;;;;;7.65;3.85;;;16.00;99.90;;;14.94;100.00;101762.75;4971603;28;20402;-75
2021/07/29 03:04:25;;;;;;;7.40;4.00;;;16.10;99.90;;;15.08;100.00;101764.75;4972637;28;20018;-75
2021/07/29 03:06:53;;;;;;;6.60;4.38;;;16.10;99.90;;;15.10;100.00;101762.88;4934367;28;20081;-75
2021/07/29 03:09:19;;;;;;;6.75;4.50;;;16.10;99.90;;;15.05;100.00;101738.38;4966702;28;20485;-75
2021/07/29 03:11:45;;;;;;;6.55;4.30;;;16.10;99.90;;;15.07;100.00;101754.22;4960669;28;20057;-75
2021/07/29 03:14:13;;;;;;;6.57;4.10;;;16.10;99.90;;;15.06;100.00;101744.56;4984132;28;20057;-75
2021/07/29 03:16:39;;;;;;;12.07;4.45;;;16.10;99.90;;;15.11;100.00;101793.78;4944448;28;20035;-75
2021/07/29 03:19:05;;;;;;;9.75;4.18;;;16.10;99.90;;;15.13;100.00;101826.41;4965288;28;20096;-75
2021/07/29 03:21:31;;;;;;;5.40;3.78;;;16.20;99.90;;;15.15;100.00;101837.78;4953975;28;20640;-75
2021/07/29 03:23:57;;;;;;;10.30;4.53;;;16.30;99.90;;;15.18;100.00;101908.41;4958076;28;20046;-75
2021/07/29 03:26:23;;;;;;;9.35;4.50;;;16.30;99.90;;;15.21;100.00;101896.81;4984291;28;20106;-75
2021/07/29 03:28:49;;;;;;;8.82;4.18;;;16.30;99.90;;;15.29;100.00;101879.59;4983343;28;20027;-76
2021/07/29 03:31:15;;;;;;;6.93;3.90;;;16.40;99.90;;;15.33;100.00;101878.53;4952338;28;20148;-76
2021/07/29 03:33:41;;;;;;;4.50;3.58;;;16.40;99.90;;;15.33;100.00;101859.94;4951726;28;20057;-75
2021/07/29 03:36:07;;;;;;;7.28;3.85;;;16.40;99.90;;;15.34;100.00;101856.34;4949455;28;20072;-75
2021/07/29 03:38:33;;;;;;;6.55;3.97;;;16.50;99.90;;;15.36;100.00;101850.97;4943825;28;20068;-75
2021/07/29 03:40:59;;;;;;;6.88;3.75;;;16.50;99.90;;;15.41;100.00;101917.09;4952207;28;20034;-75
2021/07/29 03:43:25;;;;;;;7.20;3.97;;;16.50;99.90;;;15.41;100.00;101983.44;4936326;28;20418;-75
2021/07/29 03:45:51;;;;;;;6.05;3.67;;;16.50;99.90;;;15.41;100.00;102041.81;4980073;28;20065;-75
2021/07/29 03:48:18;;;;;;;6.93;3.60;;;16.50;99.90;;;15.42;100.00;102070.06;4979677;28;20072;-75
2021/07/29 03:50:45;;;;;;;6.45;3.55;;;16.50;99.90;;;15.40;100.00;102117.94;4969665;28;20151;-75
2021/07/29 03:53:11;;;;;;;15.50;4.28;;;16.50;99.90;;;15.37;100.00;101999.47;4986241;28;20118;-75
2021/07/29 03:55:38;;;;;;;7.43;3.97;;;16.40;99.90;;;15.36;100.00;102037.59;4959078;28;20030;-75
2021/07/29 03:58:04;;;;;;;8.38;4.18;;;16.50;99.90;;;15.37;100.00;102044.59;4974005;28;20436;-75
2021/07/29 04:00:30;;;;;;;6.88;3.85;;;16.50;99.90;;;15.41;100.00;102047.13;4968759;28;20421;-75
2021/07/29 04:02:56;;;;;;;7.55;4.10;;;16.50;99.90;;;15.43;100.00;102162.06;4962360;28;20039;-75
2021/07/29 04:05:22;;;;;;;7.43;4.38;;;16.50;99.90;;;15.43;100.00;102151.44;4968785;28;20026;-75
2021/07/29 04:07:48;;;;;;;14.68;4.13;;;16.50;99.90;;;15.42;100.00;102113.44;4972603;28;20429;-75
2021/07/29 04:10:14;;;;;;;8.73;3.78;;;16.50;99.90;;;15.44;100.00;102131.91;4971254;28;20071;-76
2021/07/29 04:12:40;;;;;;;7.15;3.28;;;16.60;99.90;;;15.51;100.00;102134.25;4987398;28;20050;-75
2021/07/29 04:15:06;;;;;;;6.45;3.60;;;16.60;99.90;;;15.53;100.00;102139.50;4970465;28;20115;-75
2021/07/29 04:17:32;;;;;;;6.70;3.20;;;16.60;99.90;;;15.55;100.00;102111.03;4984461;28;20066;-75
2021/07/29 04:20:01;;;;;;;8.68;3.50;;;16.60;99.90;;;15.58;100.00;102090.53;4971647;28;20390;-75
2021/07/29 04:22:27;;;;;;;11.50;3.55;;;16.70;99.90;;;15.61;100.00;102086.88;4968885;28;20412;-75
2021/07/29 04:24:55;;;;;;;10.55;3.67;;;16.60;99.90;;;15.58;100.00;102079.06;4985959;28;20466;-75
2021/07/29 04:27:22;;;;;;;8.57;3.67;;;16.70;99.90;;;15.59;100.00;102070.16;5012078;28;20463;-75
2021/07/29 04:29:50;;;;;;;7.05;3.95;;;16.60;99.90;;;15.59;100.00;102063.06;4953751;28;20154;-75
2021/07/29 04:32:16;;;;;;;7.82;3.40;;;16.60;99.90;;;15.57;100.00;102059.63;4970829;28;20479;-75
2021/07/29 04:34:42;;;;;;;8.48;4.00;;;16.60;99.90;;;15.55;100.00;102058.84;4974106;28;20057;-75
2021/07/29 04:37:11;;;;;;;12.38;3.55;;;16.60;99.90;;;15.52;100.00;102061.63;4974396;28;20524;-75
2021/07/29 04:39:41;;;;;;;12.15;4.03;;;16.60;99.90;;;15.52;100.00;102058.09;4974322;28;20045;-75
2021/07/29 04:42:08;;;;;;;6.40;3.88;;;16.60;99.90;;;15.47;100.00;102042.41;4990781;28;24624;-75
2021/07/29 04:44:34;;;;;;;7.15;3.70;;;16.50;99.90;;;15.46;100.00;102055.72;4973260;28;20536;-75
2021/07/29 04:47:00;;;;;;;11.52;3.95;;;16.60;99.90;;;15.52;100.00;102068.72;4974399;28;20057;-76
2021/07/29 04:49:26;;;;;;;8.48;4.35;;;17.00;99.90;;;16.47;100.00;102146.59;4972439;28;20057;-75
2021/07/29 04:51:52;;;;;;;9.75;3.28;;;18.10;99.90;;;17.60;92.00;102237.63;4990310;28;20516;-75
2021/07/29 04:54:18;;;;;;;9.20;3.08;;;19.30;99.90;;;18.84;83.95;102297.59;4988346;28;20031;-76
2021/07/29 04:56:44;;;;;;;7.35;2.83;;;20.40;99.90;;;19.90;78.34;102327.09;4957291;28;20023;-76
2021/07/29 04:59:10;;;;;;;8.52;2.65;;;21.20;99.90;;;20.58;74.64;102347.88;4990917;28;21084;-75
2021/07/29 05:01:38;;;;;;;6.88;2.50;;;22.10;99.90;;;21.43;70.29;102392.34;4972739;28;20113;-76
2021/07/29 05:04:05;;;;;;;5.60;2.05;;;22.50;99.90;;;21.41;69.57;102152.25;4975584;28;20047;-75
2021/07/29 05:06:31;;;;;;;7.85;2.92;;;22.90;99.90;;;21.55;67.99;102127.19;4977570;28;20502;-76
2021/07/29 05:08:57;;;;;;;5.25;2.50;;;22.60;99.90;;;21.65;66.65;102161.25;4986040;28;20045;-76
2021/07/29 05:11:23;;;;;;;5.15;2.35;;;22.80;99.90;;;22.24;65.07;102206.22;4972405;28;20031;-76
2021/07/29 05:13:53;;;;;;;6.38;2.10;;;23.20;99.90;;;22.52;64.43;102113.78;4991090;28;20035;-76
2021/07/29 05:16:19;;;;;;;8.75;2.10;;;23.40;99.90;;;22.62;62.27;102113.13;4987378;28;20037;-76
2021/07/29 05:18:45;;;;;;;7.35;2.17;;;23.50;99.90;;;22.27;63.47;101994.06;4975129;28;20073;-76
2021/07/29 05:21:12;;;;;;;11.98;2.03;;;23.30;99.90;;;22.63;61.92;101997.53;5004642;28;20038;-76
2021/07/29 05:23:38;;;;;;;6.50;1.95;;;23.40;99.90;;;22.76;61.33;102042.25;4973482;28;20118;-76
2021/07/29 05:26:04;;;;;;;3.80;2.15;;;23.60;99.90;;;23.33;60.51;102079.81;4988875;28;20039;-75
2021/07/29 05:28:30;;;;;;;8.30;2.22;;;23.80;99.90;;;23.19;59.48;102003.97;4990299;28;20344;-76
2021/07/29 05:30:56;;;;;;;10.02;2.28;;;24.30;99.90;;;24.18;56.68;102066.75;4990267;28;20088;-76
2021/07/29 05:33:22;;;;;;;8.45;2.17;;;24.60;99.90;;;23.94;56.19;102079.41;5004731;28;20145;-76
2021/07/29 05:35:48;;;;;;;4.13;2.05;;;24.60;99.90;;;23.90;56.32;101993.72;4973503;28;20030;-76
2021/07/29 05:38:14;;;;;;;7.55;2.30;;;24.70;99.90;;;23.60;55.44;101936.09;4988202;28;20027;-76
2021/07/29 05:40:40;;;;;;;6.40;2.33;;;24.20;99.90;;;23.45;56.69;101930.16;4974409;28;20082;-75
2021/07/29 05:43:06;;;;;;;9.13;2.03;;;24.10;99.90;;;23.72;55.89;102042.63;4987115;28;20043;-76
2021/07/29 05:45:33;;;;;;;4.85;2.20;;;23.10;99.90;;;22.12;59.35;101807.44;4974267;28;20067;-75
2021/07/29 05:47:59;;;;;;;4.15;2.05;;;22.60;99.90;;;22.19;60.56;101838.16;4972703;28;20042;-75
2021/07/29 05:50:25;;;;;;;6.57;2.20;;;22.70;99.90;;;22.27;59.93;101835.78;4973618;28;20026;-75
2021/07/29 05:52:51;;;;;;;4.20;1.90;;;23.30;99.90;;;22.79;58.15;101872.88;4988899;28;20033;-76
2021/07/29 05:55:17;;;;;;;8.13;2.22;;;23.50;99.90;;;23.29;57.24;101911.75;4988109;28;20022;-76
2021/07/29 05:57:43;;;;;;;6.80;2.38;;;23.50;99.90;;;22.85;56.93;101835.63;5007054;28;20038;-75
2021/07/29 06:00:10;;;;;;;5.93;2.20;;;23.40;99.90;;;23.25;57.00;101883.41;4954564;28;20463;-75
2021/07/29 06:02:36;;;;;;;5.25;1.80;;;24.10;99.90;;;24.24;54.27;101956.75;5002142;28;20042;-76
2021/07/29 06:05:03;;;;;;;6.05;2.60;;;24.60;99.90;;;24.39;52.58;101933.06;4973059;28;20382;-75
2021/07/29 06:07:30;;;;;;;2.45;1.80;;;24.90;99.90;;;24.40;52.26;101889.00;4971352;28;20018;-75
2021/07/29 06:09:57;;;;;;;6.72;1.77;;;24.20;99.90;;;23.15;55.71;101753.50;4984448;28;20390;-76
2021/07/29 06:12:27;;;;;;;4.10;2.00;;;23.20;99.90;;;22.28;58.43;101684.53;4953908;28;20053;-76
2021/07/29 06:14:55;;;;;;;5.25;2.03;;;22.30;99.90;;;21.34;60.45;101602.66;4965610;28;20030;-76
2021/07/29 06:17:26;;;;;;;5.78;2.00;;;21.80;99.90;;;21.15;62.51;101605.91;5006538;28;20026;-75
2021/07/29 06:19:52;;;;;;;3.42;1.88;;;21.60;99.90;;;20.86;62.90;101570.66;4988213;28;20034;-76
2021/07/29 06:22:18;;;;;;;4.82;2.30;;;21.20;99.90;;;20.38;63.95;101533.25;4973575;28;20042;-75
2021/07/29 06:24:44;;;;;;;3.55;2.10;;;21.00;99.90;;;20.06;64.43;101515.09;4971996;28;20038;-75
2021/07/29 06:27:10;;;;;;;5.63;2.00;;;20.80;99.90;;;20.03;65.06;101500.16;4969703;28;20393;-75
2021/07/29 06:29:36;;;;;;;4.15;2.13;;;20.70;99.90;;;19.98;64.97;101502.31;4973423;28;20457;-75
2021/07/29 06:32:04;;;;;;;6.38;2.00;;;20.70;99.90;;;19.95;63.81;101496.34;4987370;28;20026;-75
2021/07/29 06:34:29;;;;;;;4.75;1.65;;;20.70;99.90;;;20.10;63.78;101507.72;4973616;28;20037;-75
2021/07/29 06:36:55;;;;;;;9.23;1.98;;;20.90;99.90;;;20.23;62.01;101514.69;4973110;28;20308;-75
2021/07/29 06:39:21;;;;;;;5.45;1.90;;;21.30;99.90;;;21.07;59.34;101587.72;4972095;28;20022;-75
2021/07/29 06:41:47;;;;;;;5.25;1.80;;;22.00;99.90;;;21.94;57.64;101669.44;5005132;28;20029;-75
2021/07/29 06:44:14;;;;;;;5.07;1.70;;;23.30;99.90;;;23.74;51.91;101789.75;4960740;28;20490;-75
2021/07/29 06:46:40;;;;;;;3.63;1.90;;;23.60;99.90;;;22.96;53.89;101656.63;4959783;28;20403;-75
2021/07/29 06:49:07;;;;;;;3.00;1.67;;;22.70;99.90;;;21.58;58.74;101524.00;4976050;28;20908;-75
2021/07/29 06:51:37;;;;;;;6.60;2.05;;;21.90;99.90;;;20.80;62.16;101472.09;4977986;28;20046;-75
2021/07/29 06:54:04;;;;;;;5.25;2.20;;;21.30;99.90;;;20.44;63.92;101455.22;4983043;28;20041;-75
2021/07/29 06:56:32;;;;;;;5.65;1.95;;;21.00;99.90;;;20.05;63.13;101423.38;4998798;28;20034;-75
2021/07/29 06:58:58;;;;;;;4.22;1.88;;;20.90;99.90;;;20.25;63.70;101440.56;4998167;28;20045;-76
2021/07/29 07:01:25;;;;;;;4.55;1.73;;;20.70;99.90;;;19.94;62.57;101406.47;4982144;28;20029;-75
2021/07/29 07:03:52;;;;;;;3.95;1.77;;;21.00;99.90;;;20.51;61.24;101466.31;5006256;28;20592;-75
2021/07/29 07:06:19;;;;;;;4.80;1.90;;;21.20;99.90;;;20.79;60.28;101491.81;5014983;28;20478;-75
2021/07/29 07:08:45;;;;;;;5.03;1.90;;;21.30;99.90;;;20.47;60.45;101434.44;5012219;28;20026;-75
2021/07/29 07:11:18;;;;;;;3.38;1.60;;;21.10;99.90;;;20.47;61.26;101438.91;5014582;28;20034;-75
2021/07/29 07:13:46;;;;;;;4.07;1.90;;;21.40;99.90;;;21.19;58.24;101512.78;4971727;28;20031;-75
2021/07/29 07:16:15;;;;;;;4.32;1.42;;;21.90;99.90;;;21.39;56.73;101522.75;4996828;28;20018;-75
2021/07/29 07:18:43;;;;;;;3.83;1.50;;;21.80;99.90;;;21.02;54.93;101477.47;5028145;28;20360;-75
2021/07/29 07:21:11;;;;;;;2.30;1.35;;;21.60;99.90;;;20.98;55.61;101478.69;4981373;28;20072;-75
2021/07/29 07:23:40;;;;;;;4.35;1.30;;;22.00;99.90;;;21.54;54.25;101519.88;4999542;28;20041;-75
2021/07/29 07:26:19;;;;;;;7.35;1.50;;;21.60;99.90;;;20.75;54.07;101562.59;5011517;28;20482;-75
2021/07/29 07:28:47;;;;;;;3.63;1.30;;;21.40;99.90;;;20.56;54.18;101469.47;5010921;28;21157;-75
2021/07/29 07:31:13;;;;;;;10.02;1.52;;;21.30;99.90;;;21.15;53.68;101535.44;5014552;28;20050;-75
2021/07/29 07:33:39;;;;;;;1.55;1.10;;;22.20;99.90;;;22.49;49.84;101643.53;4995789;28;20515;-75
2021/07/29 07:36:05;;;;;;;3.42;1.40;;;23.00;99.90;;;22.90;48.08;102144.94;5000813;28;20044;-75
2021/07/29 07:38:31;;;;;;;3.92;1.45;;;22.70;99.90;;;22.36;50.15;101780.53;5004635;28;20046;-75
2021/07/29 07:41:03;;;;;;;9.32;2.20;;;22.60;99.90;;;21.95;50.64;101709.53;4999658;28;20030;-75
2021/07/29 07:43:29;;;;;;;8.48;2.10;;;22.20;99.90;;;21.67;52.58;101985.09;4981792;28;20316;-75
2021/07/29 07:45:55;;;;;;;5.30;1.98;;;22.10;99.90;;;21.59;51.90;101761.50;5030961;28;20034;-75
2021/07/29 07:48:21;;;;;;;2.88;1.70;;;21.80;99.90;;;21.27;53.23;101684.44;5030646;28;20029;-75
2021/07/29 07:50:47;;;;;;;4.93;1.10;;;21.80;99.90;;;21.12;54.39;101582.00;5014895;28;20509;-75
2021/07/29 07:53:14;;;;;;;9.75;1.50;;;21.70;99.90;;;21.14;54.28;101584.59;5018435;28;20026;-75
2021/07/29 07:55:40;;;;;;;4.43;1.20;;;21.60;99.90;;;20.99;55.61;101563.41;4981336;28;20141;-75
2021/07/29 07:58:06;;;;;;;2.63;1.42;;;22.30;99.90;;;22.85;51.28;101754.19;5010634;28;20148;-75
2021/07/29 08:00:32;;;;;;;9.57;1.40;;;23.50;99.90;;;23.89;47.91;101783.09;4993431;28;20074;-75
2021/07/29 08:02:58;;;;;;;2.90;1.30;;;24.20;99.90;;;24.40;46.00;101804.69;4979307;28;20069;-75
2021/07/29 08:05:25;;;;;;;6.95;1.50;;;24.40;99.90;;;24.42;45.31;101773.13;4976806;28;20375;-75
2021/07/29 08:08:00;;;;;;;3.03;1.27;;;24.60;99.90;;;24.25;45.30;101718.09;4984013;28;20121;-75
2021/07/29 08:10:30;;;;;;;3.80;1.35;;;23.50;99.90;;;22.61;49.34;101569.19;4951125;28;20038;-75
2021/07/29 08:13:11;;;;;;;3.10;1.40;;;22.40;99.90;;;21.60;51.63;101476.50;4959190;28;20446;-75
2021/07/29 08:15:43;;;;;;;3.08;1.40;;;22.20;99.90;;;21.43;52.76;101469.81;4935220;28;20078;-75
2021/07/29 08:18:29;;;;;;;2.95;1.35;;;22.20;99.90;;;21.98;51.78;101539.50;4955076;28;20038;-75
2021/07/29 08:21:19;;;;;;;6.40;1.17;;;22.20;99.90;;;21.44;51.47;101442.88;4948600;28;20533;-75
2021/07/29 08:24:11;;;;;;;3.55;1.70;;;21.90;99.90;;;21.00;52.77;101404.47;4924751;28;20524;-75
2021/07/29 08:26:45;;;;;;;3.45;1.42;;;21.50;99.90;;;20.56;53.49;101357.97;4935295;28;20046;-75
2021/07/29 08:29:26;;;;;;;1.58;0.98;;;21.30;99.90;;;20.38;53.15;101324.63;4955741;28;20034;-75
2021/07/29 08:31:56;;;;;;;5.07;1.33;;;21.10;99.90;;;20.12;52.76;101303.44;4933437;28;20042;-75
2021/07/29 08:34:22;;;;;;;3.42;1.30;;;20.90;99.90;;;20.03;53.81;101290.81;4959854;28;20035;-75
2021/07/29 08:36:58;;;;;;;2.38;1.25;;;20.80;99.90;;;19.90;54.63;101272.19;4962186;28;20037;-75
2021/07/29 08:39:44;;;;;;;1.67;1.10;;;20.70;99.90;;;19.84;55.52;101270.00;4940966;28;20038;-75
2021/07/29 08:42:21;;;;;;;3.10;1.38;;;21.50;99.90;;;19.64;56.05;101268.84;4975317;28;20112;-76
2021/07/29 08:44:56;;;;;;;3.95;1.30;;;20.40;99.90;;;19.53;55.96;101258.13;4934056;28;20490;-75
2021/07/29 08:47:24;;;;;;;5.18;1.35;;;20.30;99.90;;;19.39;55.14;101243.97;4937347;28;20035;-75
2021/07/29 08:50:07;;;;;;;5.25;1.13;;;20.20;99.90;;;19.20;54.32;101233.84;4946170;28;20173;-75
2021/07/29 08:52:34;;;;;;;4.53;1.25;;;20.10;99.90;;;19.28;54.71;101262.63;4921961;28;20042;-75
2021/07/29 08:55:03;;;;;;;4.30;1.13;;;20.20;99.90;;;19.39;54.83;101267.16;4936182;28;20061;-75
2021/07/29 08:57:34;;;;;;;2.60;1.02;;;20.40;99.90;;;19.63;54.91;101300.03;4946652;28;20066;-75
2021/07/29 09:00:09;;;;;;;2.17;1.15;;;20.50;99.90;;;19.85;55.13;101307.31;4937092;28;20077;-75
2021/07/29 09:03:29;;;;;;;2.10;1.08;;;20.80;99.90;;;20.28;53.91;101346.75;4938796;28;20537;-75
2021/07/29 09:06:22;;;;;;;2.05;0.70;;;21.10;99.90;;;20.45;53.46;101355.25;4920234;28;20146;-75
2021/07/29 09:09:07;;;;;;;4.32;1.05;;;21.30;99.90;;;20.61;52.05;101355.81;4926679;28;20037;-74
2021/07/29 09:11:51;;;;;;;2.17;0.93;;;21.30;99.90;;;20.57;51.79;101343.66;4926707;28;20116;-74
2021/07/29 09:14:24;;;;;;;3.65;1.00;;;21.30;99.90;;;20.58;51.85;101350.72;4957340;28;20441;-74
2021/07/29 09:17:16;;;;;;;2.70;1.08;;;21.60;99.90;;;21.10;51.13;101397.41;4936105;28;20041;-74
2021/07/29 09:19:48;;;;;;;4.45;1.30;;;22.30;99.90;;;21.81;48.74;101455.09;4954407;28;20037;-75
2021/07/29 09:22:40;;;;;;;3.72;1.30;;;22.40;99.90;;;21.61;49.55;101408.50;4963664;28;20281;-75
2021/07/29 09:25:13;;;;;;;6.35;1.27;;;22.10;99.90;;;21.37;50.06;101371.16;4917664;28;20093;-74
2021/07/29 09:28:02;;;;;;;2.47;1.00;;;22.60;99.90;;;22.30;48.47;101492.13;4961827;28;20065;-75
2021/07/29 09:30:55;;;;;;;3.33;1.20;;;22.80;99.90;;;22.27;48.27;101441.41;4957761;28;20036;-75
2021/07/29 09:33:34;;;;;;;3.20;1.15;;;22.90;99.90;;;22.34;48.97;101443.59;4950595;28;20508;-75
2021/07/29 09:36:00;;;;;;;2.17;1.25;;;22.90;99.90;;;22.24;49.60;101427.41;4959311;28;20046;-75
2021/07/29 09:38:33;;;;;;;5.70;1.20;;;23.00;99.90;;;22.25;48.21;101405.81;4965413;28;20212;-75
2021/07/29 09:41:06;;;;;;;2.53;1.30;;;22.60;99.90;;;21.83;50.27;101357.50;4956026;28;20026;-75
2021/07/29 09:43:38;;;;;;;3.88;1.45;;;22.70;99.90;;;22.01;50.72;101359.59;4962796;28;20046;-75
2021/07/29 09:46:21;;;;;;;3.03;1.35;;;22.70;99.90;;;22.47;51.04;101425.44;4964065;28;20033;-75
2021/07/29 09:48:57;;;;;;;2.35;1.35;;;23.00;99.90;;;22.00;49.98;101333.78;4973984;28;20045;-75
2021/07/29 09:51:26;;;;;;;2.53;1.10;;;22.50;99.90;;;21.70;51.08;101311.25;4967976;28;20382;-75
2021/07/29 09:53:54;;;;;;;1.40;1.20;;;22.80;99.90;;;22.29;49.28;101372.41;4985968;28;20033;-75
2021/07/29 09:56:22;;;;;;;5.72;1.30;;;23.00;99.90;;;22.78;47.78;101455.00;4953113;28;20030;-75
2021/07/29 09:58:52;;;;;;;8.20;1.00;;;23.30;99.90;;;22.71;47.40;101392.94;4964333;28;20417;-74
2021/07/29 10:01:21;;;;;;;2.72;1.05;;;23.00;99.90;;;21.98;48.72;101288.31;4952341;28;20029;-75
2021/07/29 10:03:52;;;;;;;3.05;0.88;;;22.40;99.90;;;21.54;48.12;101252.78;4945089;28;20061;-75
2021/07/29 10:06:37;;;;;;;4.97;1.20;;;22.20;99.90;;;21.43;48.48;101248.31;4939163;28;20048;-75
2021/07/29 10:09:15;;;;;;;1.63;1.00;;;22.30;99.90;;;21.88;47.17;101293.63;4970317;28;20037;-75
2021/07/29 10:11:58;;;;;;;2.13;1.10;;;22.80;99.90;;;22.73;46.10;101390.97;4930728;28;20519;-75
2021/07/29 10:14:55;;;;;;;3.25;1.02;;;23.00;98.30;;;21.97;44.69;101253.63;4938326;28;20482;-74
2021/07/29 10:17:36;;;;;;;14.43;1.17;;;22.40;99.10;;;21.58;45.67;101277.50;4950779;28;20034;-74